RPA4484 KDCA-KORD
Flight info
| Callsign | RPA4484 |
|---|---|
| Flight time | 1h 35m |
| Altitude | 34000 |
| Route | WYNGS5 RAMAY Q72 HACKS J149 ROD WATSN4 |
| Aircraft | E75L/M-SDE3GILORVW/S |
Departure
| Time | 2026-04-25 20:33 |
|---|---|
| Airport | Ronald Reagan Washington National Airport (KDCA) |
Arrival
| Time | 2026-04-25 22:08 |
|---|---|
| Airport | Chicago O'Hare International Airport (KORD) |
| Time | Latitude | Longitude | Altitude | Speed | Heading |
|---|---|---|---|---|---|
| 2026-04-25 20:08 | 38.85600 | -77.04142 | 22 ft | 0 kts | 293° |
| 2026-04-25 20:27 | 38.85596 | -77.04131 | 22 ft | 4 kts | 292° |
| 2026-04-25 20:27 | 38.85588 | -77.04098 | 22 ft | 4 kts | 284° |
| 2026-04-25 20:28 | 38.85583 | -77.04064 | 23 ft | 3 kts | 272° |
| 2026-04-25 20:28 | 38.85583 | -77.04053 | 24 ft | 0 kts | 271° |
| 2026-04-25 20:30 | 38.85583 | -77.04055 | 24 ft | 1 kts | 274° |
| 2026-04-25 20:30 | 38.85599 | -77.04065 | 23 ft | 6 kts | 1° |
| 2026-04-25 20:30 | 38.85671 | -77.04045 | 22 ft | 12 kts | 357° |
| 2026-04-25 20:30 | 38.85760 | -77.04056 | 23 ft | 13 kts | 358° |
| 2026-04-25 20:31 | 38.85855 | -77.04060 | 23 ft | 15 kts | 359° |
| 2026-04-25 20:31 | 38.85937 | -77.04006 | 23 ft | 14 kts | 62° |
| 2026-04-25 20:31 | 38.86017 | -77.03952 | 22 ft | 13 kts | 17° |
| 2026-04-25 20:31 | 38.86096 | -77.03894 | 22 ft | 8 kts | 68° |
| 2026-04-25 20:32 | 38.86075 | -77.03869 | 21 ft | 5 kts | 173° |
| 2026-04-25 20:32 | 38.85998 | -77.03860 | 22 ft | 32 kts | 175° |
| 2026-04-25 20:32 | 38.85501 | -77.03808 | 23 ft | 108 kts | 175° |
| 2026-04-25 20:32 | 38.84518 | -77.03704 | 92 ft | 167 kts | 171° |
| 2026-04-25 20:33 | 38.83305 | -77.03568 | 900 ft | 179 kts | 169° |
| 2026-04-25 20:33 | 38.82013 | -77.03432 | 1871 ft | 193 kts | 172° |
| 2026-04-25 20:33 | 38.80675 | -77.03370 | 3085 ft | 192 kts | 175° |
| 2026-04-25 20:33 | 38.79772 | -77.03338 | 3764 ft | 201 kts | 177° |
| 2026-04-25 20:34 | 38.77802 | -77.03249 | 4128 ft | 224 kts | 179° |
| 2026-04-25 20:34 | 38.76211 | -77.03691 | 4483 ft | 253 kts | 210° |
| 2026-04-25 20:34 | 38.74988 | -77.05395 | 5284 ft | 260 kts | 245° |
| 2026-04-25 20:34 | 38.74503 | -77.07603 | 6406 ft | 263 kts | 263° |
| 2026-04-25 20:35 | 38.74403 | -77.09969 | 7303 ft | 268 kts | 267° |
| 2026-04-25 20:35 | 38.74400 | -77.12362 | 8288 ft | 268 kts | 270° |
| 2026-04-25 20:35 | 38.74451 | -77.14748 | 9264 ft | 267 kts | 267° |
| 2026-04-25 20:35 | 38.74316 | -77.17123 | 10159 ft | 269 kts | 263° |
| 2026-04-25 20:36 | 38.74111 | -77.19582 | 10638 ft | 286 kts | 263° |
| 2026-04-25 20:36 | 38.73905 | -77.22167 | 11277 ft | 295 kts | 263° |
| 2026-04-25 20:36 | 38.73871 | -77.24811 | 12063 ft | 302 kts | 277° |
| 2026-04-25 20:36 | 38.74637 | -77.27333 | 13028 ft | 307 kts | 297° |
| 2026-04-25 20:37 | 38.75724 | -77.29702 | 13999 ft | 310 kts | 297° |
| 2026-04-25 20:37 | 38.76829 | -77.32096 | 14838 ft | 315 kts | 297° |
| 2026-04-25 20:37 | 38.77961 | -77.34516 | 15723 ft | 319 kts | 298° |
| 2026-04-25 20:37 | 38.79119 | -77.36964 | 16582 ft | 324 kts | 299° |
| 2026-04-25 20:38 | 38.80305 | -77.39446 | 17393 ft | 328 kts | 299° |
| 2026-04-25 20:38 | 38.81513 | -77.41952 | 18178 ft | 333 kts | 300° |
| 2026-04-25 20:38 | 38.82740 | -77.44489 | 18867 ft | 336 kts | 300° |
| 2026-04-25 20:38 | 38.83982 | -77.47049 | 19551 ft | 340 kts | 299° |
| 2026-04-25 20:39 | 38.85243 | -77.49643 | 20234 ft | 345 kts | 299° |
| 2026-04-25 20:39 | 38.86521 | -77.52262 | 20930 ft | 349 kts | 299° |
| 2026-04-25 20:39 | 38.87818 | -77.54913 | 21598 ft | 352 kts | 299° |
| 2026-04-25 20:39 | 38.88686 | -77.56683 | 22011 ft | 355 kts | 299° |
| 2026-04-25 20:40 | 38.90464 | -77.60295 | 22789 ft | 361 kts | 299° |
| 2026-04-25 20:40 | 38.91817 | -77.63035 | 23363 ft | 365 kts | 299° |
| 2026-04-25 20:40 | 38.93177 | -77.65796 | 23908 ft | 366 kts | 298° |
| 2026-04-25 20:40 | 38.94143 | -77.68799 | 24423 ft | 364 kts | 280° |
| 2026-04-25 20:41 | 38.94405 | -77.72018 | 24968 ft | 363 kts | 272° |
| 2026-04-25 20:41 | 38.94548 | -77.75257 | 25512 ft | 364 kts | 271° |
| 2026-04-25 20:41 | 38.94671 | -77.78516 | 26040 ft | 366 kts | 271° |
| 2026-04-25 20:41 | 38.94775 | -77.81791 | 26529 ft | 368 kts | 270° |
| 2026-04-25 20:42 | 38.94866 | -77.85082 | 27042 ft | 369 kts | 270° |
| 2026-04-25 20:42 | 38.94963 | -77.88386 | 27539 ft | 371 kts | 270° |
| 2026-04-25 20:42 | 38.95079 | -77.91704 | 28046 ft | 372 kts | 270° |
| 2026-04-25 20:42 | 38.95197 | -77.95030 | 28507 ft | 374 kts | 270° |
| 2026-04-25 20:43 | 38.95312 | -77.98383 | 28893 ft | 377 kts | 270° |
| 2026-04-25 20:43 | 38.95425 | -78.01763 | 29299 ft | 380 kts | 269° |
| 2026-04-25 20:43 | 38.95537 | -78.05107 | 29779 ft | 380 kts | 269° |
| 2026-04-25 20:43 | 38.95650 | -78.08510 | 30167 ft | 382 kts | 269° |
| 2026-04-25 20:44 | 38.95761 | -78.11923 | 30537 ft | 383 kts | 269° |
| 2026-04-25 20:44 | 38.95872 | -78.15344 | 30891 ft | 384 kts | 269° |
| 2026-04-25 20:44 | 38.95982 | -78.18776 | 31231 ft | 385 kts | 269° |
| 2026-04-25 20:44 | 38.96091 | -78.22226 | 31566 ft | 387 kts | 269° |
| 2026-04-25 20:45 | 38.96272 | -78.25682 | 31887 ft | 389 kts | 272° |
| 2026-04-25 20:45 | 38.96522 | -78.29152 | 32218 ft | 390 kts | 272° |
| 2026-04-25 20:45 | 38.96766 | -78.32610 | 32641 ft | 388 kts | 272° |
| 2026-04-25 20:45 | 38.97000 | -78.36054 | 33114 ft | 385 kts | 272° |
| 2026-04-25 20:46 | 38.97224 | -78.39467 | 33593 ft | 382 kts | 272° |
| 2026-04-25 20:46 | 38.97444 | -78.42851 | 33998 ft | 379 kts | 272° |
| 2026-04-25 20:46 | 38.97882 | -78.49754 | 33979 ft | 394 kts | 272° |
| 2026-04-25 20:47 | 38.98327 | -78.56822 | 33951 ft | 403 kts | 272° |
| 2026-04-25 20:47 | 38.98777 | -78.64023 | 33920 ft | 404 kts | 272° |
| 2026-04-25 20:48 | 38.99223 | -78.71232 | 33898 ft | 406 kts | 271° |
| 2026-04-25 20:48 | 38.99666 | -78.78470 | 33915 ft | 406 kts | 271° |
| 2026-04-25 20:49 | 39.00102 | -78.85692 | 33896 ft | 405 kts | 271° |
| 2026-04-25 20:49 | 39.00533 | -78.92915 | 33906 ft | 406 kts | 271° |
| 2026-04-25 20:50 | 39.00959 | -79.00096 | 33896 ft | 406 kts | 271° |
| 2026-04-25 20:50 | 39.01385 | -79.07330 | 33901 ft | 407 kts | 271° |
| 2026-04-25 20:51 | 39.01807 | -79.14608 | 33885 ft | 409 kts | 271° |
| 2026-04-25 20:51 | 39.02248 | -79.21901 | 33891 ft | 410 kts | 271° |
| 2026-04-25 20:52 | 39.02653 | -79.27959 | 33882 ft | 409 kts | 271° |
| 2026-04-25 20:52 | 39.03209 | -79.36469 | 33886 ft | 409 kts | 271° |
| 2026-04-25 20:53 | 39.03678 | -79.43761 | 33892 ft | 409 kts | 271° |
| 2026-04-25 20:53 | 39.04140 | -79.51025 | 33888 ft | 411 kts | 271° |
| 2026-04-25 20:54 | 39.04602 | -79.58352 | 33895 ft | 411 kts | 271° |
| 2026-04-25 20:54 | 39.05061 | -79.65686 | 33901 ft | 411 kts | 271° |
| 2026-04-25 20:55 | 39.05512 | -79.73014 | 33904 ft | 411 kts | 271° |
| 2026-04-25 20:55 | 39.05959 | -79.80332 | 33916 ft | 411 kts | 270° |
| 2026-04-25 20:56 | 39.06403 | -79.87682 | 33900 ft | 412 kts | 270° |
| 2026-04-25 20:56 | 39.06840 | -79.94991 | 33908 ft | 412 kts | 270° |
| 2026-04-25 20:57 | 39.07277 | -80.02351 | 33892 ft | 413 kts | 270° |
| 2026-04-25 20:57 | 39.07708 | -80.09711 | 33874 ft | 412 kts | 270° |
| 2026-04-25 20:58 | 39.08134 | -80.17072 | 33888 ft | 412 kts | 269° |
| 2026-04-25 20:58 | 39.08555 | -80.24373 | 33881 ft | 408 kts | 269° |
| 2026-04-25 20:59 | 39.08966 | -80.31666 | 33872 ft | 408 kts | 268° |
| 2026-04-25 20:59 | 39.09357 | -80.38957 | 33873 ft | 408 kts | 268° |
| 2026-04-25 21:00 | 39.09617 | -80.43829 | 33871 ft | 408 kts | 268° |
| 2026-04-25 21:01 | 39.10320 | -80.57195 | 33870 ft | 410 kts | 268° |
| 2026-04-25 21:01 | 39.10702 | -80.64526 | 33868 ft | 410 kts | 268° |
| 2026-04-25 21:02 | 39.11077 | -80.71849 | 33866 ft | 410 kts | 268° |
| 2026-04-25 21:02 | 39.11448 | -80.79175 | 33876 ft | 410 kts | 268° |
| 2026-04-25 21:03 | 39.11814 | -80.86501 | 33874 ft | 410 kts | 268° |
| 2026-04-25 21:03 | 39.12176 | -80.93836 | 33870 ft | 413 kts | 268° |
| 2026-04-25 21:04 | 39.12534 | -81.01207 | 33878 ft | 416 kts | 268° |
| 2026-04-25 21:04 | 39.13094 | -81.08630 | 33899 ft | 424 kts | 278° |
| 2026-04-25 21:04 | 39.14172 | -81.12215 | 33899 ft | 435 kts | 289° |
| 2026-04-25 21:05 | 39.15551 | -81.15694 | 33908 ft | 437 kts | 290° |
| 2026-04-25 21:05 | 39.18397 | -81.22620 | 33893 ft | 437 kts | 290° |
| 2026-04-25 21:06 | 39.21247 | -81.29546 | 33883 ft | 439 kts | 290° |
| 2026-04-25 21:06 | 39.24107 | -81.36508 | 33896 ft | 440 kts | 290° |
| 2026-04-25 21:07 | 39.26485 | -81.42309 | 33930 ft | 440 kts | 289° |
| 2026-04-25 21:07 | 39.29323 | -81.49241 | 33904 ft | 436 kts | 289° |
| 2026-04-25 21:08 | 39.32143 | -81.56182 | 33895 ft | 436 kts | 289° |
| 2026-04-25 21:08 | 39.34949 | -81.63128 | 33885 ft | 436 kts | 289° |
| 2026-04-25 21:09 | 39.39155 | -81.73559 | 33882 ft | 436 kts | 289° |
| 2026-04-25 21:09 | 39.41956 | -81.80511 | 33888 ft | 436 kts | 289° |
| 2026-04-25 21:10 | 39.44754 | -81.87471 | 33890 ft | 436 kts | 289° |
| 2026-04-25 21:10 | 39.47547 | -81.94431 | 33895 ft | 436 kts | 289° |
| 2026-04-25 21:11 | 39.50339 | -82.01407 | 33894 ft | 436 kts | 289° |
| 2026-04-25 21:11 | 39.53126 | -82.08385 | 33899 ft | 436 kts | 289° |
| 2026-04-25 21:12 | 39.55906 | -82.15364 | 33896 ft | 436 kts | 290° |
| 2026-04-25 21:12 | 39.58215 | -82.21170 | 33890 ft | 436 kts | 290° |
| 2026-04-25 21:13 | 39.61455 | -82.29339 | 33904 ft | 436 kts | 290° |
| 2026-04-25 21:13 | 39.64222 | -82.36332 | 33895 ft | 436 kts | 290° |
| 2026-04-25 21:14 | 39.66992 | -82.43350 | 33902 ft | 439 kts | 292° |
| 2026-04-25 21:14 | 39.69773 | -82.50408 | 33943 ft | 439 kts | 292° |
| 2026-04-25 21:15 | 39.72555 | -82.57484 | 33948 ft | 439 kts | 292° |
| 2026-04-25 21:15 | 39.75330 | -82.64556 | 33946 ft | 439 kts | 291° |
| 2026-04-25 21:16 | 39.78101 | -82.71635 | 33945 ft | 439 kts | 291° |
| 2026-04-25 21:16 | 39.80864 | -82.78716 | 33970 ft | 438 kts | 292° |
| 2026-04-25 21:17 | 39.83568 | -82.85677 | 33940 ft | 429 kts | 293° |
| 2026-04-25 21:17 | 39.86271 | -82.92621 | 33940 ft | 430 kts | 293° |
| 2026-04-25 21:18 | 39.88970 | -82.99577 | 33935 ft | 430 kts | 293° |
| 2026-04-25 21:18 | 39.91664 | -83.06543 | 33946 ft | 431 kts | 293° |
| 2026-04-25 21:19 | 39.94357 | -83.13517 | 33943 ft | 431 kts | 293° |
| 2026-04-25 21:19 | 39.97038 | -83.20479 | 33945 ft | 429 kts | 293° |
| 2026-04-25 21:20 | 39.99249 | -83.26262 | 33945 ft | 429 kts | 293° |
| 2026-04-25 21:20 | 40.02361 | -83.34406 | 33942 ft | 429 kts | 293° |
| 2026-04-25 21:21 | 40.05021 | -83.41374 | 33941 ft | 429 kts | 293° |
| 2026-04-25 21:21 | 40.07682 | -83.48356 | 33948 ft | 431 kts | 294° |
| 2026-04-25 21:22 | 40.10344 | -83.55362 | 33943 ft | 431 kts | 294° |
| 2026-04-25 21:22 | 40.12994 | -83.62350 | 33943 ft | 432 kts | 294° |
| 2026-04-25 21:23 | 40.15654 | -83.69380 | 33950 ft | 431 kts | 294° |
| 2026-04-25 21:23 | 40.18310 | -83.76416 | 33952 ft | 431 kts | 294° |
| 2026-04-25 21:24 | 40.20960 | -83.83455 | 33955 ft | 431 kts | 294° |
| 2026-04-25 21:24 | 40.23606 | -83.90500 | 33960 ft | 431 kts | 294° |
| 2026-04-25 21:25 | 40.26250 | -83.97557 | 33957 ft | 432 kts | 294° |
| 2026-04-25 21:25 | 40.29008 | -84.04540 | 33960 ft | 434 kts | 302° |
| 2026-04-25 21:26 | 40.32754 | -84.10793 | 33968 ft | 436 kts | 306° |
| 2026-04-25 21:26 | 40.36568 | -84.17020 | 33950 ft | 438 kts | 306° |
| 2026-04-25 21:27 | 40.40378 | -84.23247 | 33954 ft | 438 kts | 306° |
| 2026-04-25 21:27 | 40.44184 | -84.29480 | 33952 ft | 437 kts | 306° |
| 2026-04-25 21:28 | 40.47978 | -84.35705 | 33952 ft | 436 kts | 306° |
| 2026-04-25 21:28 | 40.51769 | -84.41937 | 33961 ft | 436 kts | 306° |
| 2026-04-25 21:29 | 40.55557 | -84.48176 | 33964 ft | 436 kts | 306° |
| 2026-04-25 21:29 | 40.59340 | -84.54421 | 33961 ft | 436 kts | 306° |
| 2026-04-25 21:30 | 40.63121 | -84.60674 | 33967 ft | 436 kts | 306° |
| 2026-04-25 21:30 | 40.66258 | -84.65872 | 33964 ft | 436 kts | 306° |
| 2026-04-25 21:31 | 40.70661 | -84.73180 | 33962 ft | 435 kts | 307° |
| 2026-04-25 21:31 | 40.74415 | -84.79427 | 33963 ft | 435 kts | 307° |
| 2026-04-25 21:32 | 40.78147 | -84.85647 | 33965 ft | 435 kts | 307° |
| 2026-04-25 21:32 | 40.81898 | -84.91911 | 33970 ft | 434 kts | 307° |
| 2026-04-25 21:33 | 40.85642 | -84.98176 | 33980 ft | 434 kts | 307° |
| 2026-04-25 21:33 | 40.89385 | -85.04448 | 33987 ft | 435 kts | 307° |
| 2026-04-25 21:34 | 40.93108 | -85.10702 | 33995 ft | 432 kts | 307° |
| 2026-04-25 21:34 | 40.96822 | -85.16962 | 33992 ft | 433 kts | 307° |
| 2026-04-25 21:35 | 41.00710 | -85.23040 | 33995 ft | 433 kts | 311° |
| 2026-04-25 21:35 | 41.04819 | -85.28894 | 33978 ft | 434 kts | 311° |
| 2026-04-25 21:36 | 41.08890 | -85.34762 | 33974 ft | 433 kts | 311° |
| 2026-04-25 21:36 | 41.12955 | -85.40658 | 33972 ft | 433 kts | 310° |
| 2026-04-25 21:37 | 41.16338 | -85.45598 | 33968 ft | 429 kts | 308° |
| 2026-04-25 21:37 | 41.18323 | -85.50081 | 33978 ft | 427 kts | 289° |
| 2026-04-25 21:37 | 41.19274 | -85.53812 | 34005 ft | 427 kts | 287° |
| 2026-04-25 21:38 | 41.21089 | -85.61327 | 33973 ft | 427 kts | 287° |
| 2026-04-25 21:38 | 41.22899 | -85.68850 | 33976 ft | 427 kts | 287° |
| 2026-04-25 21:39 | 41.24700 | -85.76365 | 33983 ft | 427 kts | 287° |
| 2026-04-25 21:39 | 41.26492 | -85.83886 | 33976 ft | 427 kts | 286° |
| 2026-04-25 21:40 | 41.27377 | -85.91679 | 33977 ft | 428 kts | 276° |
| 2026-04-25 21:40 | 41.28020 | -85.99527 | 33969 ft | 426 kts | 277° |
| 2026-04-25 21:41 | 41.28732 | -86.07348 | 33991 ft | 426 kts | 279° |
| 2026-04-25 21:41 | 41.29688 | -86.15133 | 33968 ft | 426 kts | 279° |
| 2026-04-25 21:42 | 41.30614 | -86.22900 | 33967 ft | 424 kts | 279° |
| 2026-04-25 21:42 | 41.31522 | -86.30641 | 33996 ft | 424 kts | 279° |
| 2026-04-25 21:43 | 41.32448 | -86.38382 | 34012 ft | 424 kts | 280° |
| 2026-04-25 21:43 | 41.32937 | -86.42256 | 33875 ft | 424 kts | 280° |
| 2026-04-25 21:43 | 41.33430 | -86.46131 | 33580 ft | 426 kts | 280° |
| 2026-04-25 21:44 | 41.33922 | -86.50011 | 33303 ft | 426 kts | 280° |
| 2026-04-25 21:44 | 41.34418 | -86.53906 | 33030 ft | 427 kts | 280° |
| 2026-04-25 21:44 | 41.35400 | -86.61628 | 32502 ft | 426 kts | 280° |
| 2026-04-25 21:45 | 41.35905 | -86.65568 | 32242 ft | 427 kts | 280° |
| 2026-04-25 21:45 | 41.36905 | -86.73375 | 31725 ft | 429 kts | 280° |
| 2026-04-25 21:45 | 41.37405 | -86.77293 | 31469 ft | 429 kts | 280° |
| 2026-04-25 21:46 | 41.37893 | -86.81135 | 31200 ft | 413 kts | 280° |
| 2026-04-25 21:46 | 41.38362 | -86.84844 | 30761 ft | 402 kts | 280° |
| 2026-04-25 21:46 | 41.38816 | -86.88474 | 30311 ft | 393 kts | 280° |
| 2026-04-25 21:46 | 41.39258 | -86.92027 | 29813 ft | 386 kts | 280° |
| 2026-04-25 21:47 | 41.39692 | -86.95546 | 29256 ft | 385 kts | 280° |
| 2026-04-25 21:47 | 41.40130 | -86.99030 | 28714 ft | 388 kts | 280° |
| 2026-04-25 21:47 | 41.40581 | -87.02590 | 28178 ft | 392 kts | 280° |
| 2026-04-25 21:47 | 41.41040 | -87.06183 | 27649 ft | 394 kts | 280° |
| 2026-04-25 21:48 | 41.41499 | -87.09777 | 27127 ft | 394 kts | 280° |
| 2026-04-25 21:48 | 41.41959 | -87.13362 | 26620 ft | 391 kts | 280° |
| 2026-04-25 21:48 | 41.42417 | -87.16930 | 26115 ft | 390 kts | 280° |
| 2026-04-25 21:48 | 41.42872 | -87.20481 | 25600 ft | 387 kts | 280° |
| 2026-04-25 21:49 | 41.43171 | -87.22866 | 25193 ft | 386 kts | 280° |
| 2026-04-25 21:49 | 41.43616 | -87.26397 | 24590 ft | 386 kts | 281° |
| 2026-04-25 21:49 | 41.44058 | -87.29915 | 23999 ft | 384 kts | 281° |
| 2026-04-25 21:49 | 41.44489 | -87.33429 | 23378 ft | 383 kts | 280° |
| 2026-04-25 21:50 | 41.44926 | -87.36922 | 22692 ft | 381 kts | 280° |
| 2026-04-25 21:50 | 41.45385 | -87.40395 | 22023 ft | 379 kts | 281° |
| 2026-04-25 21:50 | 41.45856 | -87.43840 | 21370 ft | 377 kts | 281° |
| 2026-04-25 21:50 | 41.46332 | -87.47266 | 20729 ft | 374 kts | 281° |
| 2026-04-25 21:51 | 41.46815 | -87.50657 | 20103 ft | 371 kts | 281° |
| 2026-04-25 21:51 | 41.47305 | -87.54034 | 19495 ft | 369 kts | 281° |
| 2026-04-25 21:51 | 41.47800 | -87.57373 | 18895 ft | 366 kts | 281° |
| 2026-04-25 21:51 | 41.48295 | -87.60647 | 18311 ft | 364 kts | 280° |
| 2026-04-25 21:52 | 41.48810 | -87.63943 | 17677 ft | 362 kts | 281° |
| 2026-04-25 21:52 | 41.49325 | -87.67221 | 17024 ft | 359 kts | 281° |
| 2026-04-25 21:52 | 41.49827 | -87.70476 | 16387 ft | 357 kts | 280° |
| 2026-04-25 21:52 | 41.50338 | -87.73704 | 15757 ft | 355 kts | 281° |
| 2026-04-25 21:53 | 41.50859 | -87.76912 | 15131 ft | 353 kts | 281° |
| 2026-04-25 21:53 | 41.51377 | -87.80104 | 14518 ft | 351 kts | 281° |
| 2026-04-25 21:53 | 41.51887 | -87.83282 | 13917 ft | 349 kts | 281° |
| 2026-04-25 21:53 | 41.52395 | -87.86447 | 13266 ft | 348 kts | 281° |
| 2026-04-25 21:54 | 41.52880 | -87.89592 | 12739 ft | 342 kts | 281° |
| 2026-04-25 21:54 | 41.53336 | -87.92667 | 12384 ft | 332 kts | 281° |
| 2026-04-25 21:54 | 41.53769 | -87.95646 | 12040 ft | 323 kts | 281° |
| 2026-04-25 21:54 | 41.54181 | -87.98556 | 11698 ft | 316 kts | 281° |
| 2026-04-25 21:55 | 41.54579 | -88.01413 | 11351 ft | 309 kts | 281° |
| 2026-04-25 21:55 | 41.54964 | -88.04207 | 11003 ft | 303 kts | 281° |
| 2026-04-25 21:55 | 41.55342 | -88.06952 | 10663 ft | 298 kts | 281° |
| 2026-04-25 21:55 | 41.55709 | -88.09649 | 10328 ft | 293 kts | 281° |
| 2026-04-25 21:56 | 41.56076 | -88.12310 | 9991 ft | 290 kts | 281° |
| 2026-04-25 21:56 | 41.56313 | -88.14055 | 9759 ft | 288 kts | 282° |
| 2026-04-25 21:56 | 41.56761 | -88.17557 | 9273 ft | 286 kts | 282° |
| 2026-04-25 21:56 | 41.57089 | -88.20179 | 8921 ft | 286 kts | 282° |
| 2026-04-25 21:57 | 41.57642 | -88.22716 | 8565 ft | 285 kts | 294° |
| 2026-04-25 21:57 | 41.58619 | -88.25006 | 8206 ft | 283 kts | 310° |
| 2026-04-25 21:57 | 41.59975 | -88.26899 | 7859 ft | 281 kts | 323° |
| 2026-04-25 21:57 | 41.61605 | -88.28297 | 7506 ft | 277 kts | 338° |
| 2026-04-25 21:58 | 41.63414 | -88.29102 | 7164 ft | 273 kts | 352° |
| 2026-04-25 21:58 | 41.65290 | -88.29292 | 6831 ft | 270 kts | 4° |
| 2026-04-25 21:58 | 41.67151 | -88.29089 | 6496 ft | 267 kts | 8° |
| 2026-04-25 21:58 | 41.69002 | -88.28877 | 6144 ft | 266 kts | 6° |
| 2026-04-25 21:59 | 41.70833 | -88.28739 | 6013 ft | 256 kts | 6° |
| 2026-04-25 21:59 | 41.72618 | -88.28621 | 6024 ft | 259 kts | 5° |
| 2026-04-25 21:59 | 41.74433 | -88.28525 | 6043 ft | 262 kts | 5° |
| 2026-04-25 22:00 | 41.78101 | -88.28418 | 6031 ft | 265 kts | 4° |
| 2026-04-25 22:00 | 41.79954 | -88.28499 | 5972 ft | 267 kts | 356° |
| 2026-04-25 22:00 | 41.81793 | -88.28833 | 5980 ft | 267 kts | 353° |
| 2026-04-25 22:00 | 41.83613 | -88.29345 | 5976 ft | 268 kts | 349° |
| 2026-04-25 22:01 | 41.85424 | -88.29932 | 5967 ft | 268 kts | 350° |
| 2026-04-25 22:01 | 41.87235 | -88.30504 | 5964 ft | 268 kts | 350° |
| 2026-04-25 22:01 | 41.89062 | -88.30967 | 5964 ft | 266 kts | 359° |
| 2026-04-25 22:01 | 41.90277 | -88.30965 | 5999 ft | 264 kts | 5° |
| 2026-04-25 22:02 | 41.92739 | -88.30910 | 5989 ft | 265 kts | 0° |
| 2026-04-25 22:02 | 41.94579 | -88.31066 | 5962 ft | 260 kts | 0° |
| 2026-04-25 22:02 | 41.96294 | -88.30775 | 5870 ft | 241 kts | 29° |
| 2026-04-25 22:02 | 41.97307 | -88.29157 | 5828 ft | 226 kts | 76° |
| 2026-04-25 22:03 | 41.97109 | -88.27105 | 5547 ft | 233 kts | 111° |
| 2026-04-25 22:03 | 41.96500 | -88.25059 | 5159 ft | 234 kts | 99° |
| 2026-04-25 22:03 | 41.96450 | -88.22892 | 4851 ft | 231 kts | 84° |
| 2026-04-25 22:03 | 41.96535 | -88.20763 | 4633 ft | 226 kts | 89° |
| 2026-04-25 22:04 | 41.96474 | -88.18669 | 4381 ft | 223 kts | 90° |
| 2026-04-25 22:04 | 41.96481 | -88.16595 | 4109 ft | 221 kts | 86° |
| 2026-04-25 22:04 | 41.96515 | -88.14531 | 3828 ft | 221 kts | 88° |
| 2026-04-25 22:04 | 41.96510 | -88.12464 | 3538 ft | 221 kts | 88° |
| 2026-04-25 22:05 | 41.96514 | -88.10397 | 3277 ft | 221 kts | 87° |
| 2026-04-25 22:05 | 41.96528 | -88.08351 | 2994 ft | 216 kts | 87° |
| 2026-04-25 22:05 | 41.96533 | -88.06368 | 2691 ft | 208 kts | 87° |
| 2026-04-25 22:05 | 41.96537 | -88.04491 | 2415 ft | 194 kts | 87° |
| 2026-04-25 22:06 | 41.96544 | -88.02760 | 2171 ft | 177 kts | 87° |
| 2026-04-25 22:06 | 41.96548 | -88.01180 | 1942 ft | 160 kts | 85° |
| 2026-04-25 22:06 | 41.96552 | -87.99799 | 1731 ft | 136 kts | 84° |
| 2026-04-25 22:06 | 41.96558 | -87.98559 | 1541 ft | 132 kts | 85° |
| 2026-04-25 22:07 | 41.96563 | -87.97319 | 1348 ft | 134 kts | 86° |
| 2026-04-25 22:07 | 41.96570 | -87.96480 | 1237 ft | 136 kts | 84° |
| 2026-04-25 22:07 | 41.96562 | -87.94780 | 1002 ft | 137 kts | 86° |
| 2026-04-25 22:07 | 41.96568 | -87.93505 | 790 ft | 135 kts | 84° |
| 2026-04-25 22:08 | 41.96570 | -87.92300 | 671 ft | 118 kts | 85° |
| 2026-04-25 22:08 | 41.96573 | -87.91357 | 665 ft | 83 kts | 89° |
| 2026-04-25 22:08 | 41.96582 | -87.90725 | 667 ft | 57 kts | 86° |
| 2026-04-25 22:08 | 41.96658 | -87.90387 | 666 ft | 24 kts | 58° |
| 2026-04-25 22:09 | 41.96728 | -87.90224 | 666 ft | 18 kts | 69° |
| 2026-04-25 22:09 | 41.96739 | -87.90055 | 667 ft | 19 kts | 89° |
| 2026-04-25 22:09 | 41.96740 | -87.89876 | 667 ft | 20 kts | 90° |
| 2026-04-25 22:09 | 41.96741 | -87.89711 | 667 ft | 17 kts | 91° |
| 2026-04-25 22:10 | 41.96741 | -87.89544 | 667 ft | 18 kts | 90° |
| 2026-04-25 22:10 | 41.96774 | -87.89438 | 667 ft | 10 kts | 8° |
| 2026-04-25 22:10 | 41.96849 | -87.89437 | 668 ft | 11 kts | 360° |
| 2026-04-25 22:10 | 41.96932 | -87.89436 | 668 ft | 13 kts | 0° |
| 2026-04-25 22:11 | 41.97028 | -87.89437 | 667 ft | 14 kts | 0° |
| 2026-04-25 22:11 | 41.97118 | -87.89435 | 667 ft | 12 kts | 0° |
| 2026-04-25 22:11 | 41.97194 | -87.89434 | 667 ft | 10 kts | 0° |
| 2026-04-25 22:11 | 41.97255 | -87.89434 | 667 ft | 8 kts | 0° |
| 2026-04-25 22:12 | 41.97307 | -87.89432 | 667 ft | 7 kts | 2° |
| 2026-04-25 22:12 | 41.97361 | -87.89431 | 667 ft | 8 kts | 359° |
| 2026-04-25 22:12 | 41.97424 | -87.89431 | 667 ft | 10 kts | 0° |
| 2026-04-25 22:12 | 41.97476 | -87.89431 | 667 ft | 12 kts | 359° |
| 2026-04-25 22:13 | 41.97602 | -87.89431 | 667 ft | 15 kts | 1° |
| 2026-04-25 22:13 | 41.97706 | -87.89432 | 667 ft | 14 kts | 359° |
| 2026-04-25 22:13 | 41.97764 | -87.89486 | 667 ft | 9 kts | 276° |
| 2026-04-25 22:13 | 41.97783 | -87.89545 | 667 ft | 6 kts | 289° |
| 2026-04-25 22:14 | 41.97786 | -87.89612 | 667 ft | 8 kts | 269° |
| 2026-04-25 22:14 | 41.97785 | -87.89675 | 667 ft | 6 kts | 270° |
| 2026-04-25 22:14 | 41.97786 | -87.89723 | 667 ft | 4 kts | 270° |
| 2026-04-25 22:14 | 41.97788 | -87.89755 | 667 ft | 3 kts | 284° |
| 2026-04-25 22:15 | 41.97794 | -87.89775 | 667 ft | 2 kts | 303° |
| 2026-04-25 22:15 | 41.97807 | -87.89779 | 667 ft | 2 kts | 8° |
| 2026-04-25 22:15 | 41.97822 | -87.89771 | 667 ft | 2 kts | 27° |
| 2026-04-25 22:16 | 41.97827 | -87.89768 | 667 ft | 0 kts | 28° |